A80 TRACON Summary / KATL TAF
ATL TRACON Summary:
High pressure will continue to dominate the airspace this evening and overnight. Expect VFR conditions under mostly clear skies through 05z with sct/bkn 015-025 clouds developing by 09z-10z. Surface winds will be north-northwest at 7-10kts becoming northeast to east at 7-12kts by 05-06z. Flight Hazards in the TRACON airspace: None expected.

Updated:2/27/2015 7:06 PM
ATL Terminal Aerodrome Forecast:

FTUS80 KATL 280521 RRA
KATL 280520Z 2806/0112 34006KT P6SM FEW120
     FM280800 04008KT P6SM SCT020 BKN110
     FM281500 08012G18KT P6SM SCT035 BKN090
     FM010300 08009KT P6SM SCT015 BKN035
     FM010600 08009KT P6SM -RA BKN015
ATL TRACON Area Remark:
FROST AND RELATED DE-ICING OPERATIONS EXPECTED BETWEEN 02Z-09Z.
Convective Gate Forecast / Icing Gate Forecast / Vertical Wind Profile (click on image to enlarge)
Convective Gate Forecast
Icing Gate Forecast

table with gate forecasts (convective and CCFP) used April - November while icing gate forecasts are issued

AIRMETs & SIGMETS/ Southeast Radar loop / Satellite Image (click on image to enlarge)

Southeast Radar Loop

 



USA.gov is the U.S. government's official web portal to all federal, state and local government web resources and services.